Hebron, IL (60034)

12:06 AM CDT on April 26, 2017 (GMT -0500)
WI/IL Border | | Change Station

Elev 879 ft 42.49 °N, 88.40 °W | Updated 1 minute ago

Partly Cloudy
Partly Cloudy
61.9 °F
Feels Like 61.9 °F
N
3.0
Wind Variable Wind from SSE

Today
High -- | Low -- °F
--% Chance of Precip.
Yesterday
High -- | Low -- °F
Precip. -- in
Pressure 29.54 in
Visibility 10.0 miles
Clouds Clear
Dew Point 53 °F
Humidity 73%
Rainfall 0.00 in
Snow Depth Not available.
5:55 AM 7:48 PM
Waning Crescent, 0% visible
METAR KBUU 260455Z AUTO 12006KT 10SM CLR 19/15 A2954 RMK AO2 T01870145
Pressure 29.54 in
Visibility 10.0 miles
Clouds Clear
Dew Point 53 °F
Humidity 73%
Rainfall 0.00 in
Snow Depth Not available.
5:55 AM 7:48 PM
Waning Crescent, 0% visible
METAR KBUU 260455Z AUTO 12006KT 10SM CLR 19/15 A2954 RMK AO2 T01870145

Get Severe Weather Alerts

Thanks for signing up!

Be on the lookout for a verification email in your inbox.

You'll start receiving the daily forecast at 8 AM.

×

10-Day Weather Forecast

Almanac

Astronomy

Apr. 26, 2017 Rise Set
Actual Time
Civil Twilight
Nautical Twilight
Astronomical Twilight
Moon
Length of Visible Light
Length of Day
Tomorrow will be .
, % of the Moon is Illuminated

Today's Extremes

State Highs State Lows

Community

WunderPhotos

WunderBlog® & News

Nearby

Air Quality

  Air Quality AQ Index Pollutant
Not available.

Snow Depth

Station Depth Elevation

Earthquake Activity

City Distance Mag. Time & Date
Minimum magnitude displayed is 2.5.

Coastal Water Temperatures

Place Temperature

Stations

Nearby Weather Stations

Station Location Temp. Windchill Dew Point Humidity Wind Precip. Elev Updated Type
                   

Watches & Warnings

There are currently no watches in effect.